createdAt,value
2018-08-06T00:00:29.511Z,1012.2
2018-08-06T00:01:10.299Z,1012.21
2018-08-06T00:01:51.096Z,1012.2
2018-08-06T00:02:31.926Z,1012.19
2018-08-06T00:03:12.720Z,1012.21
2018-08-06T00:03:53.499Z,1012.2
2018-08-06T00:04:34.304Z,1012.17
2018-08-06T00:05:15.106Z,1012.21
2018-08-06T00:05:55.910Z,1012.21
2018-08-06T00:06:36.684Z,1012.22
2018-08-06T00:07:17.456Z,1012.22
2018-08-06T00:07:58.240Z,1012.25
2018-08-06T00:08:39.037Z,1012.27
2018-08-06T00:09:19.852Z,1012.25
2018-08-06T00:10:00.642Z,1012.25
2018-08-06T00:10:41.461Z,1012.26
2018-08-06T00:11:22.288Z,1012.27
2018-08-06T00:12:03.155Z,1012.24
2018-08-06T00:12:43.912Z,1012.22
2018-08-06T00:13:24.652Z,1012.25
2018-08-06T00:14:05.529Z,1012.25
2018-08-06T00:14:46.336Z,1012.24
2018-08-06T00:15:27.060Z,1012.23
2018-08-06T00:16:07.826Z,1012.19
2018-08-06T00:16:48.598Z,1012.23
2018-08-06T00:17:29.451Z,1012.23
2018-08-06T00:18:10.219Z,1012.21
2018-08-06T00:18:51.050Z,1012.19
2018-08-06T00:19:31.827Z,1012.2
2018-08-06T00:20:12.587Z,1012.18
2018-08-06T00:20:53.349Z,1012.2
2018-08-06T00:21:34.155Z,1012.21
2018-08-06T00:22:15.000Z,1012.22
2018-08-06T00:22:55.802Z,1012.19
2018-08-06T00:23:36.596Z,1012.2
2018-08-06T00:24:17.426Z,1012.23
2018-08-06T00:24:58.246Z,1012.18
2018-08-06T00:25:39.070Z,1012.2
2018-08-06T00:26:19.838Z,1012.19
2018-08-06T00:27:00.652Z,1012.19
2018-08-06T00:27:41.406Z,1012.18
2018-08-06T00:28:22.280Z,1012.13
2018-08-06T00:29:03.078Z,1012.13
2018-08-06T00:29:45.463Z,1012.11
2018-08-06T00:30:26.247Z,1012.12
2018-08-06T00:31:07.034Z,1012.16
2018-08-06T00:31:47.844Z,1012.1
2018-08-06T00:32:28.584Z,1012.14
2018-08-06T00:33:09.345Z,1012.14
2018-08-06T00:33:50.108Z,1012.18
2018-08-06T00:34:30.910Z,1012.16
2018-08-06T00:35:11.768Z,1012.19
2018-08-06T00:35:52.638Z,1012.15
2018-08-06T00:36:33.428Z,1012.18
2018-08-06T00:37:14.207Z,1012.16
2018-08-06T00:37:54.940Z,1012.15
2018-08-06T00:38:35.721Z,1012.18
2018-08-06T00:39:16.616Z,1012.22
2018-08-06T00:39:57.397Z,1012.25
2018-08-06T00:40:38.197Z,1012.22
2018-08-06T00:41:19.065Z,1012.22
2018-08-06T00:41:59.859Z,1012.25
2018-08-06T00:42:40.693Z,1012.25
2018-08-06T00:43:21.429Z,1012.23
2018-08-06T00:44:02.183Z,1012.21
2018-08-06T00:44:43.051Z,1012.21
2018-08-06T00:45:23.826Z,1012.21
2018-08-06T00:46:04.555Z,1012.22
2018-08-06T00:46:45.327Z,1012.2
2018-08-06T00:47:26.070Z,1012.2
2018-08-06T00:48:06.922Z,1012.2
2018-08-06T00:48:47.722Z,1012.18
2018-08-06T00:49:28.496Z,1012.17
2018-08-06T00:50:09.427Z,1012.14
2018-08-06T00:50:50.193Z,1012.14
2018-08-06T00:51:31.132Z,1012.12
2018-08-06T00:52:11.922Z,1012.1
2018-08-06T00:52:52.729Z,1012.13
2018-08-06T00:53:33.654Z,1012.12
2018-08-06T00:54:14.455Z,1012.15
2018-08-06T00:54:55.345Z,1012.12
2018-08-06T00:55:36.297Z,1012.12
2018-08-06T00:56:17.157Z,1012.13
2018-08-06T00:56:57.887Z,1012.12
2018-08-06T00:57:38.809Z,1012.11
2018-08-06T00:58:19.852Z,1012.1
2018-08-06T00:59:00.615Z,1012.07
2018-08-06T00:59:41.357Z,1012.05
2018-08-06T01:00:22.157Z,1012.05
2018-08-06T01:01:02.978Z,1012.06
2018-08-06T01:01:43.794Z,1012.08
2018-08-06T01:02:24.615Z,1012.06
2018-08-06T01:03:05.365Z,1012.08
2018-08-06T01:03:46.169Z,1011.99
2018-08-06T01:04:27.024Z,1011.96
2018-08-06T01:05:07.848Z,1011.97
2018-08-06T01:05:48.714Z,1011.98
2018-08-06T01:06:29.450Z,1011.92
2018-08-06T01:07:10.288Z,1011.94
2018-08-06T01:07:51.049Z,1011.93
2018-08-06T01:08:31.877Z,1011.92
2018-08-06T01:09:12.710Z,1011.93
2018-08-06T01:09:53.458Z,1011.88
2018-08-06T01:10:34.227Z,1011.95
2018-08-06T01:11:15.091Z,1011.92
2018-08-06T01:11:55.865Z,1011.9
2018-08-06T01:12:36.701Z,1011.9
2018-08-06T01:13:17.493Z,1011.9
2018-08-06T01:13:58.259Z,1011.89
2018-08-06T01:14:39.097Z,1011.89
2018-08-06T01:15:19.919Z,1011.9
2018-08-06T01:16:00.660Z,1011.84
2018-08-06T01:16:41.413Z,1011.9
2018-08-06T01:17:22.140Z,1011.87
2018-08-06T01:18:02.948Z,1011.9
2018-08-06T01:18:43.757Z,1011.89
2018-08-06T01:19:24.489Z,1011.9
2018-08-06T01:20:05.297Z,1011.89
2018-08-06T01:20:46.110Z,1011.87
2018-08-06T01:21:26.951Z,1011.9
2018-08-06T01:22:07.759Z,1011.89
2018-08-06T01:22:48.585Z,1011.89
2018-08-06T01:23:29.394Z,1011.87
2018-08-06T01:24:10.174Z,1011.91
2018-08-06T01:24:50.961Z,1011.89
2018-08-06T01:25:31.727Z,1011.89
2018-08-06T01:26:12.476Z,1011.88
2018-08-06T01:26:53.332Z,1011.92
2018-08-06T01:27:34.136Z,1011.9
2018-08-06T01:28:14.973Z,1011.94
2018-08-06T01:28:55.726Z,1011.91
2018-08-06T01:29:36.493Z,1011.93
2018-08-06T01:30:17.289Z,1011.89
2018-08-06T01:30:58.110Z,1011.9
2018-08-06T01:31:38.898Z,1011.89
2018-08-06T01:32:19.643Z,1011.83
2018-08-06T01:33:00.452Z,1011.86
2018-08-06T01:33:41.282Z,1011.83
2018-08-06T01:34:22.125Z,1011.81
2018-08-06T01:35:02.892Z,1011.81
2018-08-06T01:35:43.655Z,1011.82
2018-08-06T01:36:24.461Z,1011.82
2018-08-06T01:37:05.233Z,1011.8
2018-08-06T01:37:46.051Z,1011.8
2018-08-06T01:38:26.927Z,1011.79
2018-08-06T01:39:07.739Z,1011.78
2018-08-06T01:39:48.527Z,1011.82
2018-08-06T01:40:29.277Z,1011.79
2018-08-06T01:41:10.146Z,1011.78
2018-08-06T01:41:50.948Z,1011.79
2018-08-06T01:42:31.727Z,1011.82
2018-08-06T01:43:12.488Z,1011.82
2018-08-06T01:43:53.308Z,1011.82
2018-08-06T01:44:34.084Z,1011.8
2018-08-06T01:45:14.918Z,1011.78
2018-08-06T01:45:55.732Z,1011.75
2018-08-06T01:46:36.502Z,1011.78
2018-08-06T01:47:17.279Z,1011.73
2018-08-06T01:47:58.044Z,1011.73
2018-08-06T01:48:38.907Z,1011.71
2018-08-06T01:49:19.723Z,1011.67
2018-08-06T01:50:00.487Z,1011.66
2018-08-06T01:50:41.312Z,1011.66
2018-08-06T01:51:22.113Z,1011.65
2018-08-06T01:52:02.901Z,1011.64
2018-08-06T01:52:43.707Z,1011.63
2018-08-06T01:53:24.465Z,1011.65
2018-08-06T01:54:05.301Z,1011.63
2018-08-06T01:54:46.069Z,1011.62
2018-08-06T01:55:26.847Z,1011.58
2018-08-06T01:56:07.677Z,1011.6
2018-08-06T01:56:48.447Z,1011.61
2018-08-06T01:57:29.286Z,1011.6
2018-08-06T01:58:10.147Z,1011.56
2018-08-06T01:58:50.927Z,1011.56
2018-08-06T01:59:31.748Z,1011.59
2018-08-06T02:00:12.598Z,1011.55
2018-08-06T02:00:53.451Z,1011.52
2018-08-06T02:01:34.215Z,1011.52
2018-08-06T02:02:14.992Z,1011.52
2018-08-06T02:02:55.780Z,1011.49
2018-08-06T02:03:36.702Z,1011.5
2018-08-06T02:04:17.507Z,1011.54
2018-08-06T02:04:58.352Z,1011.46
2018-08-06T02:05:39.153Z,1011.48
2018-08-06T02:06:19.963Z,1011.48
2018-08-06T02:07:00.756Z,1011.47
2018-08-06T02:07:41.547Z,1011.46
2018-08-06T02:08:22.351Z,1011.46
2018-08-06T02:09:03.111Z,1011.42
2018-08-06T02:09:43.909Z,1011.45
2018-08-06T02:10:24.705Z,1011.44
2018-08-06T02:11:05.499Z,1011.41
2018-08-06T02:11:46.247Z,1011.42
2018-08-06T02:12:27.104Z,1011.46
2018-08-06T02:13:07.908Z,1011.46
2018-08-06T02:13:48.720Z,1011.47
2018-08-06T02:14:29.559Z,1011.46
2018-08-06T02:15:10.329Z,1011.46
2018-08-06T02:15:51.192Z,1011.45
2018-08-06T02:16:31.927Z,1011.48
2018-08-06T02:17:12.743Z,1011.47
2018-08-06T02:17:53.520Z,1011.45
2018-08-06T02:18:34.289Z,1011.47
2018-08-06T02:19:15.119Z,1011.47
2018-08-06T02:19:55.909Z,1011.45
2018-08-06T02:20:36.755Z,1011.43
2018-08-06T02:21:17.571Z,1011.46
2018-08-06T02:21:58.322Z,1011.43
2018-08-06T02:22:39.103Z,1011.42
2018-08-06T02:23:19.918Z,1011.41
2018-08-06T02:24:00.684Z,1011.45
2018-08-06T02:24:41.471Z,1011.42
2018-08-06T02:25:22.261Z,1011.41
2018-08-06T02:26:03.127Z,1011.43
2018-08-06T02:26:43.968Z,1011.46
2018-08-06T02:27:24.763Z,1011.41
2018-08-06T02:28:05.577Z,1011.44
2018-08-06T02:28:46.392Z,1011.44
2018-08-06T02:29:27.224Z,1011.44
2018-08-06T02:30:08.018Z,1011.43
2018-08-06T02:30:48.801Z,1011.44
2018-08-06T02:31:29.591Z,1011.44
2018-08-06T02:32:10.404Z,1011.44
2018-08-06T02:32:51.211Z,1011.45
2018-08-06T02:33:31.996Z,1011.47
2018-08-06T02:34:12.786Z,1011.45
2018-08-06T02:34:53.652Z,1011.46
2018-08-06T02:35:34.451Z,1011.44
2018-08-06T02:36:15.257Z,1011.4
2018-08-06T02:36:56.047Z,1011.46
2018-08-06T02:37:36.834Z,1011.44
2018-08-06T02:38:17.631Z,1011.46
2018-08-06T02:38:58.464Z,1011.43
2018-08-06T02:39:39.326Z,1011.46
2018-08-06T02:40:20.129Z,1011.45
2018-08-06T02:41:00.878Z,1011.42
2018-08-06T02:41:41.680Z,1011.43
2018-08-06T02:42:22.562Z,1011.45
2018-08-06T02:43:03.320Z,1011.45
2018-08-06T02:43:44.109Z,1011.43
2018-08-06T02:44:24.966Z,1011.42
2018-08-06T02:45:05.812Z,1011.43
2018-08-06T02:45:46.647Z,1011.44
2018-08-06T02:46:27.548Z,1011.43
2018-08-06T02:47:08.299Z,1011.42
2018-08-06T02:47:49.089Z,1011.39
2018-08-06T02:48:29.899Z,1011.42
2018-08-06T02:49:10.649Z,1011.39
2018-08-06T02:49:51.504Z,1011.43
2018-08-06T02:50:32.253Z,1011.44
2018-08-06T02:51:13.012Z,1011.42
2018-08-06T02:51:53.833Z,1011.43
2018-08-06T02:52:34.613Z,1011.42
2018-08-06T02:53:15.435Z,1011.44
2018-08-06T02:53:56.182Z,1011.45
2018-08-06T02:54:36.942Z,1011.38
2018-08-06T02:55:17.719Z,1011.38
2018-08-06T02:55:58.526Z,1011.39
2018-08-06T02:56:39.351Z,1011.39
2018-08-06T02:57:20.196Z,1011.38
2018-08-06T02:58:01.004Z,1011.4
2018-08-06T02:58:41.755Z,1011.43
2018-08-06T02:59:22.610Z,1011.44
2018-08-06T03:00:03.352Z,1011.43
2018-08-06T03:00:44.126Z,1011.42
2018-08-06T03:01:24.896Z,1011.4
2018-08-06T03:02:05.664Z,1011.4
2018-08-06T03:02:46.515Z,1011.39
2018-08-06T03:03:27.311Z,1011.4
2018-08-06T03:04:08.064Z,1011.41
2018-08-06T03:04:48.869Z,1011.37
2018-08-06T03:05:29.707Z,1011.35
2018-08-06T03:06:10.567Z,1011.36
2018-08-06T03:06:51.379Z,1011.33
2018-08-06T03:07:32.168Z,1011.32
2018-08-06T03:08:13.019Z,1011.33
2018-08-06T03:08:53.827Z,1011.33
2018-08-06T03:09:34.652Z,1011.39
2018-08-06T03:10:15.492Z,1011.4
2018-08-06T03:10:56.355Z,1011.37
2018-08-06T03:11:37.215Z,1011.37
2018-08-06T03:12:18.022Z,1011.39
2018-08-06T03:12:58.858Z,1011.41
2018-08-06T03:13:39.623Z,1011.39
2018-08-06T03:14:20.371Z,1011.38
2018-08-06T03:15:01.176Z,1011.4
2018-08-06T03:15:42.020Z,1011.38
2018-08-06T03:16:22.796Z,1011.36
2018-08-06T03:17:03.634Z,1011.34
2018-08-06T03:17:44.419Z,1011.33
2018-08-06T03:18:25.208Z,1011.33
2018-08-06T03:19:06.031Z,1011.38
2018-08-06T03:19:46.838Z,1011.35
2018-08-06T03:20:27.623Z,1011.38
2018-08-06T03:21:08.460Z,1011.36
2018-08-06T03:21:49.230Z,1011.37
2018-08-06T03:22:30.099Z,1011.4
2018-08-06T03:23:10.878Z,1011.34
2018-08-06T03:23:51.710Z,1011.35
2018-08-06T03:24:32.472Z,1011.34
2018-08-06T03:25:13.295Z,1011.34
2018-08-06T03:25:54.164Z,1011.35
2018-08-06T03:26:34.927Z,1011.33
2018-08-06T03:27:15.666Z,1011.33
2018-08-06T03:27:56.443Z,1011.3
2018-08-06T03:28:37.266Z,1011.3
2018-08-06T03:29:18.126Z,1011.27
2018-08-06T03:29:58.962Z,1011.28
2018-08-06T03:30:39.787Z,1011.27
2018-08-06T03:31:20.636Z,1011.26
2018-08-06T03:32:01.438Z,1011.26
2018-08-06T03:32:42.198Z,1011.24
2018-08-06T03:33:23.103Z,1011.21
2018-08-06T03:34:03.856Z,1011.2
2018-08-06T03:34:44.670Z,1011.23
2018-08-06T03:35:25.536Z,1011.22
2018-08-06T03:36:06.307Z,1011.24
2018-08-06T03:36:47.157Z,1011.2
2018-08-06T03:37:27.904Z,1011.22
2018-08-06T03:38:08.718Z,1011.22
2018-08-06T03:38:49.616Z,1011.21
2018-08-06T03:39:30.355Z,1011.23
2018-08-06T03:40:11.134Z,1011.24
2018-08-06T03:40:51.858Z,1011.21
2018-08-06T03:41:32.679Z,1011.24
2018-08-06T03:42:13.482Z,1011.17
2018-08-06T03:42:54.271Z,1011.23
2018-08-06T03:43:35.069Z,1011.22
2018-08-06T03:44:15.894Z,1011.22
2018-08-06T03:44:56.717Z,1011.2
2018-08-06T03:45:37.528Z,1011.2
2018-08-06T03:46:18.333Z,1011.21
2018-08-06T03:46:59.089Z,1011.22
2018-08-06T03:47:39.879Z,1011.24
2018-08-06T03:48:20.651Z,1011.19
2018-08-06T03:49:01.492Z,1011.23
2018-08-06T03:49:42.353Z,1011.23
2018-08-06T03:50:23.110Z,1011.25
2018-08-06T03:51:03.890Z,1011.24
2018-08-06T03:51:44.770Z,1011.24
2018-08-06T03:52:25.547Z,1011.22
2018-08-06T03:53:06.329Z,1011.24
2018-08-06T03:53:47.141Z,1011.23
2018-08-06T03:54:27.887Z,1011.25
2018-08-06T03:55:08.736Z,1011.25
2018-08-06T03:55:49.532Z,1011.25
2018-08-06T03:56:30.344Z,1011.27
2018-08-06T03:57:11.132Z,1011.26
2018-08-06T03:57:51.892Z,1011.26
2018-08-06T03:58:32.650Z,1011.29
2018-08-06T03:59:13.459Z,1011.22
2018-08-06T03:59:54.297Z,1011.25
2018-08-06T04:00:35.094Z,1011.26
2018-08-06T04:01:15.868Z,1011.29
2018-08-06T04:01:56.716Z,1011.28
2018-08-06T04:02:37.526Z,1011.3
2018-08-06T04:03:18.281Z,1011.31
2018-08-06T04:03:59.010Z,1011.32
2018-08-06T04:04:39.769Z,1011.31
2018-08-06T04:05:20.545Z,1011.34
2018-08-06T04:06:01.354Z,1011.34
2018-08-06T04:06:42.165Z,1011.29
2018-08-06T04:07:22.986Z,1011.31
2018-08-06T04:08:03.763Z,1011.29
2018-08-06T04:08:44.537Z,1011.29
2018-08-06T04:09:25.397Z,1011.29
2018-08-06T04:10:06.231Z,1011.29
2018-08-06T04:10:46.998Z,1011.3
2018-08-06T04:11:27.824Z,1011.3
2018-08-06T04:12:08.628Z,1011.3
2018-08-06T04:12:49.473Z,1011.3
2018-08-06T04:13:30.275Z,1011.31
2018-08-06T04:14:11.043Z,1011.29
2018-08-06T04:14:51.909Z,1011.31
2018-08-06T04:15:32.692Z,1011.31
2018-08-06T04:16:13.516Z,1011.33
2018-08-06T04:16:54.282Z,1011.31
2018-08-06T04:17:35.084Z,1011.35
2018-08-06T04:18:15.931Z,1011.34
2018-08-06T04:18:56.688Z,1011.34
2018-08-06T04:19:37.567Z,1011.36
2018-08-06T04:20:18.216Z,1011.36
2018-08-06T04:20:58.974Z,1011.36
2018-08-06T04:21:39.825Z,1011.34
2018-08-06T04:22:20.704Z,1011.36
2018-08-06T04:23:01.512Z,1011.36
2018-08-06T04:23:44.258Z,1011.34
2018-08-06T04:24:25.006Z,1011.33
2018-08-06T04:25:05.862Z,1011.35
2018-08-06T04:25:46.624Z,1011.35
2018-08-06T04:26:27.374Z,1011.34
2018-08-06T04:27:08.175Z,1011.38
2018-08-06T04:27:49.022Z,1011.39
2018-08-06T04:28:29.795Z,1011.39
2018-08-06T04:29:10.636Z,1011.41
2018-08-06T04:29:51.380Z,1011.4
2018-08-06T04:30:32.237Z,1011.45
2018-08-06T04:31:13.043Z,1011.44
2018-08-06T04:31:53.830Z,1011.44
2018-08-06T04:32:34.640Z,1011.44
2018-08-06T04:33:15.448Z,1011.46
2018-08-06T04:33:56.267Z,1011.43
2018-08-06T04:34:37.139Z,1011.48
2018-08-06T04:35:17.935Z,1011.46
2018-08-06T04:35:58.717Z,1011.48
2018-08-06T04:36:39.575Z,1011.48
2018-08-06T04:37:20.373Z,1011.48
2018-08-06T04:38:01.247Z,1011.46
2018-08-06T04:38:42.049Z,1011.51
2018-08-06T04:39:22.799Z,1011.47
2018-08-06T04:40:03.581Z,1011.46
2018-08-06T04:40:44.376Z,1011.49
2018-08-06T04:41:25.189Z,1011.49
2018-08-06T04:42:06.013Z,1011.52
2018-08-06T04:42:46.812Z,1011.51
2018-08-06T04:43:27.622Z,1011.53
2018-08-06T04:44:08.435Z,1011.52
2018-08-06T04:44:49.252Z,1011.52
2018-08-06T04:45:30.061Z,1011.51
2018-08-06T04:46:10.829Z,1011.53
2018-08-06T04:46:51.617Z,1011.55
2018-08-06T04:47:32.466Z,1011.53
2018-08-06T04:48:13.247Z,1011.55
2018-08-06T04:48:54.012Z,1011.56
2018-08-06T04:49:34.828Z,1011.56
2018-08-06T04:50:15.674Z,1011.59
2018-08-06T04:50:56.511Z,1011.57
2018-08-06T04:51:37.274Z,1011.58
2018-08-06T04:52:18.075Z,1011.56
2018-08-06T04:52:58.949Z,1011.59
2018-08-06T04:53:39.744Z,1011.58
2018-08-06T04:54:20.521Z,1011.59
2018-08-06T04:55:01.327Z,1011.59
2018-08-06T04:55:42.123Z,1011.58
2018-08-06T04:56:22.990Z,1011.62
2018-08-06T04:57:03.760Z,1011.6
2018-08-06T04:57:44.632Z,1011.59
2018-08-06T04:58:25.392Z,1011.59
2018-08-06T04:59:13.784Z,1011.62
2018-08-06T04:59:54.563Z,1011.62
2018-08-06T05:00:35.335Z,1011.62
2018-08-06T05:01:16.192Z,1011.61
2018-08-06T05:01:56.920Z,1011.64
2018-08-06T05:02:37.703Z,1011.65
2018-08-06T05:03:18.462Z,1011.61
2018-08-06T05:03:59.330Z,1011.62
2018-08-06T05:04:40.116Z,1011.64
2018-08-06T05:05:20.918Z,1011.62
2018-08-06T05:06:01.656Z,1011.64
2018-08-06T05:06:42.490Z,1011.62
2018-08-06T05:07:23.349Z,1011.63
2018-08-06T05:08:04.131Z,1011.63
2018-08-06T05:08:44.976Z,1011.61
2018-08-06T05:09:25.765Z,1011.62
2018-08-06T05:10:06.594Z,1011.65
2018-08-06T05:10:47.420Z,1011.66
2018-08-06T05:11:28.222Z,1011.65
2018-08-06T05:12:08.998Z,1011.66
2018-08-06T05:12:49.858Z,1011.68
2018-08-06T05:13:30.703Z,1011.66
2018-08-06T05:14:11.528Z,1011.69
2018-08-06T05:14:52.416Z,1011.69
2018-08-06T05:15:33.210Z,1011.74
2018-08-06T05:16:14.007Z,1011.71
2018-08-06T05:16:54.798Z,1011.68
2018-08-06T05:17:35.579Z,1011.72
2018-08-06T05:18:16.477Z,1011.7
2018-08-06T05:18:57.237Z,1011.74
2018-08-06T05:19:38.025Z,1011.73
2018-08-06T05:20:18.860Z,1011.74
2018-08-06T05:21:02.628Z,1011.78
2018-08-06T05:21:43.492Z,1011.78
2018-08-06T05:22:24.310Z,1011.73
2018-08-06T05:23:05.145Z,1011.78
2018-08-06T05:23:46.047Z,1011.73
2018-08-06T05:24:26.792Z,1011.73
2018-08-06T05:25:07.521Z,1011.74
2018-08-06T05:25:48.279Z,1011.76
2018-08-06T05:26:29.080Z,1011.76
2018-08-06T05:27:09.949Z,1011.75
2018-08-06T05:27:50.740Z,1011.73
2018-08-06T05:28:31.576Z,1011.7
2018-08-06T05:29:12.399Z,1011.7
2018-08-06T05:29:53.214Z,1011.74
2018-08-06T05:30:34.089Z,1011.74
2018-08-06T05:31:14.868Z,1011.71
2018-08-06T05:31:55.625Z,1011.75
2018-08-06T05:32:36.371Z,1011.74
2018-08-06T05:33:17.180Z,1011.74
2018-08-06T05:33:58.037Z,1011.78
2018-08-06T05:34:38.904Z,1011.76
2018-08-06T05:35:19.685Z,1011.77
2018-08-06T05:36:00.480Z,1011.81
2018-08-06T05:36:41.278Z,1011.82
2018-08-06T05:37:22.071Z,1011.8
2018-08-06T05:38:02.898Z,1011.78
2018-08-06T05:38:43.659Z,1011.77
2018-08-06T05:39:24.466Z,1011.78
2018-08-06T05:40:05.380Z,1011.79
2018-08-06T05:40:46.109Z,1011.79
2018-08-06T05:41:29.463Z,1011.76
2018-08-06T05:42:10.204Z,1011.75
2018-08-06T05:42:51.609Z,1011.78
2018-08-06T05:43:32.436Z,1011.75
2018-08-06T05:44:13.287Z,1011.74
2018-08-06T05:44:54.037Z,1011.77
2018-08-06T05:45:34.807Z,1011.79
2018-08-06T05:46:15.624Z,1011.78
2018-08-06T05:46:56.477Z,1011.81
2018-08-06T05:47:37.285Z,1011.77
2018-08-06T05:48:18.059Z,1011.78
2018-08-06T05:48:58.767Z,1011.77
2018-08-06T05:49:39.533Z,1011.79
2018-08-06T05:50:20.328Z,1011.79
2018-08-06T05:51:01.141Z,1011.79
2018-08-06T05:51:41.985Z,1011.77
2018-08-06T05:52:22.799Z,1011.81
2018-08-06T05:53:03.567Z,1011.85
2018-08-06T05:53:44.349Z,1011.82
2018-08-06T05:54:25.173Z,1011.81
2018-08-06T05:55:05.916Z,1011.79
2018-08-06T05:55:46.733Z,1011.79
2018-08-06T05:56:27.495Z,1011.79
2018-08-06T05:57:08.324Z,1011.83
2018-08-06T05:57:49.113Z,1011.79
2018-08-06T05:58:29.938Z,1011.79
2018-08-06T05:59:10.710Z,1011.8
2018-08-06T05:59:51.557Z,1011.84
2018-08-06T06:00:32.404Z,1011.84
2018-08-06T06:01:13.217Z,1011.83
2018-08-06T06:01:53.987Z,1011.86
2018-08-06T06:02:34.798Z,1011.84
2018-08-06T06:03:15.626Z,1011.83
2018-08-06T06:03:56.335Z,1011.79
2018-08-06T06:04:37.098Z,1011.85
2018-08-06T06:05:17.849Z,1011.8
2018-08-06T06:05:58.703Z,1011.86
2018-08-06T06:06:39.504Z,1011.78
2018-08-06T06:07:20.422Z,1011.83
2018-08-06T06:08:01.148Z,1011.79
2018-08-06T06:08:41.937Z,1011.79
2018-08-06T06:09:22.719Z,1011.78
2018-08-06T06:10:03.523Z,1011.79
2018-08-06T06:10:44.350Z,1011.79
2018-08-06T06:11:25.122Z,1011.82
2018-08-06T06:12:05.976Z,1011.83
2018-08-06T06:12:46.837Z,1011.8
2018-08-06T06:13:27.705Z,1011.78
2018-08-06T06:14:08.498Z,1011.85
2018-08-06T06:14:49.347Z,1011.85
2018-08-06T06:15:30.233Z,1011.86
2018-08-06T06:16:11.012Z,1011.87
2018-08-06T06:16:51.901Z,1011.84
2018-08-06T06:17:32.718Z,1011.91
2018-08-06T06:18:14.129Z,1011.9
2018-08-06T06:18:55.645Z,1011.9
2018-08-06T06:19:36.394Z,1011.91
2018-08-06T06:20:17.223Z,1011.92
2018-08-06T06:20:57.934Z,1011.94
2018-08-06T06:21:38.703Z,1011.95
2018-08-06T06:22:19.463Z,1011.95
2018-08-06T06:23:00.315Z,1011.91
2018-08-06T06:23:41.139Z,1011.95
2018-08-06T06:24:22.002Z,1011.94
2018-08-06T06:25:02.789Z,1011.97
2018-08-06T06:25:43.557Z,1011.95
2018-08-06T06:26:24.277Z,1011.98
2018-08-06T06:27:04.997Z,1012.01
2018-08-06T06:27:45.855Z,1012.01
2018-08-06T06:28:26.599Z,1012.02
2018-08-06T06:29:07.363Z,1012.05
2018-08-06T06:29:48.181Z,1012.06
2018-08-06T06:30:29.008Z,1012.05
2018-08-06T06:31:09.863Z,1012.04
2018-08-06T06:31:50.672Z,1012.08
2018-08-06T06:32:31.470Z,1012.04
2018-08-06T06:33:12.345Z,1012.06
2018-08-06T06:33:53.135Z,1012.09
2018-08-06T06:34:33.948Z,1012.09
2018-08-06T06:35:14.680Z,1012.09
2018-08-06T06:35:55.446Z,1012.08
2018-08-06T06:36:36.291Z,1012.1
2018-08-06T06:37:17.116Z,1012.13
2018-08-06T06:37:57.871Z,1012.09
2018-08-06T06:38:38.749Z,1012.12
2018-08-06T06:39:19.536Z,1012.1
2018-08-06T06:40:00.383Z,1012.14
2018-08-06T06:40:41.084Z,1012.13
2018-08-06T06:41:21.762Z,1012.13
2018-08-06T06:42:02.483Z,1012.17
2018-08-06T06:42:43.261Z,1012.15
2018-08-06T06:43:24.130Z,1012.17
2018-08-06T06:44:04.998Z,1012.15
2018-08-06T06:44:45.759Z,1012.16
2018-08-06T06:45:26.519Z,1012.17
2018-08-06T06:46:07.373Z,1012.2
2018-08-06T06:46:48.218Z,1012.2
2018-08-06T06:47:28.967Z,1012.21
2018-08-06T06:48:09.735Z,1012.2
2018-08-06T06:48:50.512Z,1012.19
2018-08-06T06:49:31.395Z,1012.17
2018-08-06T06:50:12.142Z,1012.19
2018-08-06T06:50:52.868Z,1012.14
2018-08-06T06:51:33.618Z,1012.19
2018-08-06T06:52:14.471Z,1012.13
2018-08-06T06:52:55.304Z,1012.11
2018-08-06T06:53:36.120Z,1012.11
2018-08-06T06:54:16.887Z,1012.13
2018-08-06T06:54:57.641Z,1012.17
2018-08-06T06:55:38.475Z,1012.14
2018-08-06T06:56:19.294Z,1012.17
2018-08-06T06:57:00.052Z,1012.19
2018-08-06T06:57:40.873Z,1012.16
2018-08-06T06:58:21.737Z,1012.2
2018-08-06T06:59:02.532Z,1012.17
2018-08-06T06:59:43.361Z,1012.19
2018-08-06T07:00:24.110Z,1012.2
2018-08-06T07:01:04.850Z,1012.18
2018-08-06T07:01:45.606Z,1012.17
2018-08-06T07:02:26.392Z,1012.21
2018-08-06T07:03:07.181Z,1012.19
2018-08-06T07:03:47.953Z,1012.19
2018-08-06T07:04:28.813Z,1012.21
2018-08-06T07:05:09.610Z,1012.16
2018-08-06T07:05:50.405Z,1012.2
2018-08-06T07:06:31.354Z,1012.18
2018-08-06T07:07:11.990Z,1012.16
2018-08-06T07:07:52.784Z,1012.14
2018-08-06T07:08:33.626Z,1012.17
2018-08-06T07:09:14.394Z,1012.2
2018-08-06T07:09:55.130Z,1012.16
2018-08-06T07:10:35.880Z,1012.2
2018-08-06T07:11:16.693Z,1012.17
2018-08-06T07:11:57.453Z,1012.19
2018-08-06T07:12:38.163Z,1012.2
2018-08-06T07:13:18.957Z,1012.2
2018-08-06T07:13:59.848Z,1012.17
2018-08-06T07:14:40.636Z,1012.16
2018-08-06T07:15:21.387Z,1012.17
2018-08-06T07:16:02.117Z,1012.15
2018-08-06T07:16:42.874Z,1012.18
2018-08-06T07:17:23.678Z,1012.17
2018-08-06T07:18:04.550Z,1012.15
2018-08-06T07:18:45.367Z,1012.17
2018-08-06T07:19:26.163Z,1012.16
2018-08-06T07:20:06.964Z,1012.17
2018-08-06T07:20:47.797Z,1012.18
2018-08-06T07:21:28.608Z,1012.19
2018-08-06T07:22:09.333Z,1012.18
2018-08-06T07:22:50.075Z,1012.23
2018-08-06T07:23:30.819Z,1012.19
2018-08-06T07:24:11.646Z,1012.23
2018-08-06T07:24:52.522Z,1012.23
2018-08-06T07:25:33.354Z,1012.24
2018-08-06T07:26:14.096Z,1012.24
2018-08-06T07:26:54.883Z,1012.23
2018-08-06T07:27:37.231Z,1012.26
2018-08-06T07:28:17.958Z,1012.27
2018-08-06T07:28:58.851Z,1012.25
2018-08-06T07:29:39.584Z,1012.29
2018-08-06T07:30:20.436Z,1012.28
2018-08-06T07:31:01.242Z,1012.3
2018-08-06T07:31:42.000Z,1012.3
2018-08-06T07:32:22.857Z,1012.27
2018-08-06T07:33:03.630Z,1012.28
2018-08-06T07:33:44.464Z,1012.27
2018-08-06T07:34:25.154Z,1012.29
2018-08-06T07:35:05.972Z,1012.32
2018-08-06T07:35:46.814Z,1012.27
2018-08-06T07:36:27.660Z,1012.28
2018-08-06T07:37:08.440Z,1012.3
2018-08-06T07:37:49.204Z,1012.28
2018-08-06T07:38:30.047Z,1012.27
2018-08-06T07:39:10.865Z,1012.32
2018-08-06T07:39:51.637Z,1012.33
2018-08-06T07:40:32.366Z,1012.3
2018-08-06T07:41:13.121Z,1012.3
2018-08-06T07:41:53.956Z,1012.33
2018-08-06T07:42:34.704Z,1012.29
2018-08-06T07:43:15.512Z,1012.3
2018-08-06T07:43:56.253Z,1012.28
2018-08-06T07:44:37.071Z,1012.29
2018-08-06T07:45:17.925Z,1012.23
2018-08-06T07:45:58.666Z,1012.24
2018-08-06T07:46:39.502Z,1012.24
2018-08-06T07:47:20.355Z,1012.25
2018-08-06T07:48:01.160Z,1012.25
2018-08-06T07:48:41.893Z,1012.23
2018-08-06T07:49:22.688Z,1012.27
2018-08-06T07:50:03.434Z,1012.28
2018-08-06T07:50:44.281Z,1012.28
2018-08-06T07:51:25.153Z,1012.22
2018-08-06T07:52:05.959Z,1012.26
2018-08-06T07:52:46.730Z,1012.25
2018-08-06T07:53:27.509Z,1012.27
2018-08-06T07:54:08.221Z,1012.24
2018-08-06T07:54:49.029Z,1012.23
2018-08-06T07:55:29.799Z,1012.21
2018-08-06T07:56:10.515Z,1012.23
2018-08-06T07:56:51.391Z,1012.2
2018-08-06T07:57:32.214Z,1012.21
2018-08-06T07:58:13.053Z,1012.2
2018-08-06T07:58:53.790Z,1012.2
2018-08-06T07:59:34.557Z,1012.21
2018-08-06T08:00:15.313Z,1012.2
2018-08-06T08:00:56.166Z,1012.19
2018-08-06T08:01:37.003Z,1012.21
2018-08-06T08:02:17.835Z,1012.15
2018-08-06T08:02:58.607Z,1012.22
2018-08-06T08:03:39.379Z,1012.15
2018-08-06T08:04:20.213Z,1012.18
2018-08-06T08:05:01.042Z,1012.21
2018-08-06T08:05:41.813Z,1012.2
2018-08-06T08:06:22.627Z,1012.2
2018-08-06T08:07:03.340Z,1012.17
2018-08-06T08:07:44.134Z,1012.18
2018-08-06T08:08:24.984Z,1012.16
2018-08-06T08:09:05.802Z,1012.19
2018-08-06T08:09:46.553Z,1012.16
2018-08-06T08:10:27.299Z,1012.15
2018-08-06T08:11:08.007Z,1012.11
2018-08-06T08:11:48.845Z,1012.13
2018-08-06T08:12:29.631Z,1012.13
2018-08-06T08:13:10.388Z,1012.14
2018-08-06T08:13:51.208Z,1012.16
2018-08-06T08:14:32.018Z,1012.16
2018-08-06T08:15:12.886Z,1012.13
2018-08-06T08:15:53.761Z,1012.09